sensor_id;sensor_type;location;lat;lon;timestamp;temperature;humidity
7936;DHT22;4013;49.744;8.118;2024-02-16T05:30:54;10.60;99.90
7936;DHT22;4013;49.744;8.118;2024-02-16T05:33:21;10.60;99.90
7936;DHT22;4013;49.744;8.118;2024-02-16T05:35:48;10.60;99.90
7936;DHT22;4013;49.744;8.118;2024-02-16T05:38:20;10.60;99.90
7936;DHT22;4013;49.744;8.118;2024-02-16T05:40:57;10.60;99.90
7936;DHT22;4013;49.744;8.118;2024-02-16T05:43:24;10.60;99.90
7936;DHT22;4013;49.744;8.118;2024-02-16T05:45:51;10.60;99.90
7936;DHT22;4013;49.744;8.118;2024-02-16T05:48:19;10.50;99.90
7936;DHT22;4013;49.744;8.118;2024-02-16T05:50:47;10.50;99.90
7936;DHT22;4013;49.744;8.118;2024-02-16T05:53:14;10.50;99.90
7936;DHT22;4013;49.744;8.118;2024-02-16T05:55:41;10.50;99.90
7936;DHT22;4013;49.744;8.118;2024-02-16T05:58:09;10.50;99.90
7936;DHT22;4013;49.744;8.118;2024-02-16T06:00:37;10.50;99.90
7936;DHT22;4013;49.744;8.118;2024-02-16T06:03:04;10.60;99.90
7936;DHT22;4013;49.744;8.118;2024-02-16T06:05:34;10.60;99.90
7936;DHT22;4013;49.744;8.118;2024-02-16T06:08:01;10.60;99.90
7936;DHT22;4013;49.744;8.118;2024-02-16T06:10:27;10.60;99.90
7936;DHT22;4013;49.744;8.118;2024-02-16T06:12:54;10.60;99.90
7936;DHT22;4013;49.744;8.118;2024-02-16T06:15:21;10.60;99.90
7936;DHT22;4013;49.744;8.118;2024-02-16T06:17:48;10.50;99.90
7936;DHT22;4013;49.744;8.118;2024-02-16T06:20:16;10.40;99.90
7936;DHT22;4013;49.744;8.118;2024-02-16T06:22:45;10.40;99.90
7936;DHT22;4013;49.744;8.118;2024-02-16T06:25:12;10.40;99.90
7936;DHT22;4013;49.744;8.118;2024-02-16T06:27:39;10.30;99.90
7936;DHT22;4013;49.744;8.118;2024-02-16T06:30:07;10.30;99.90
7936;DHT22;4013;49.744;8.118;2024-02-16T06:32:38;10.30;99.90
7936;DHT22;4013;49.744;8.118;2024-02-16T06:35:05;10.30;99.90
7936;DHT22;4013;49.744;8.118;2024-02-16T06:37:33;10.30;99.90
7936;DHT22;4013;49.744;8.118;2024-02-16T06:40:01;10.20;99.90
7936;DHT22;4013;49.744;8.118;2024-02-16T06:42:28;10.30;99.90
7936;DHT22;4013;49.744;8.118;2024-02-16T06:44:56;10.30;99.90
7936;DHT22;4013;49.744;8.118;2024-02-16T06:47:23;10.40;99.90
7936;DHT22;4013;49.744;8.118;2024-02-16T06:49:51;10.40;99.90
7936;DHT22;4013;49.744;8.118;2024-02-16T06:52:18;10.50;99.90
7936;DHT22;4013;49.744;8.118;2024-02-16T06:54:45;10.60;99.90
7936;DHT22;4013;49.744;8.118;2024-02-16T06:57:13;10.60;99.90
7936;DHT22;4013;49.744;8.118;2024-02-16T06:59:40;10.70;99.90
7936;DHT22;4013;49.744;8.118;2024-02-16T07:02:07;10.80;99.90
7936;DHT22;4013;49.744;8.118;2024-02-16T07:04:34;10.80;99.90
7936;DHT22;4013;49.744;8.118;2024-02-16T07:07:02;11.00;99.90
7936;DHT22;4013;49.744;8.118;2024-02-16T07:09:29;11.00;99.90
7936;DHT22;4013;49.744;8.118;2024-02-16T07:11:56;11.10;99.90
7936;DHT22;4013;49.744;8.118;2024-02-16T07:14:25;11.10;99.90
7936;DHT22;4013;49.744;8.118;2024-02-16T07:16:52;11.10;99.90
7936;DHT22;4013;49.744;8.118;2024-02-16T07:19:20;11.00;99.90
7936;DHT22;4013;49.744;8.118;2024-02-16T07:21:47;11.10;99.90
7936;DHT22;4013;49.744;8.118;2024-02-16T07:24:14;11.10;99.90
7936;DHT22;4013;49.744;8.118;2024-02-16T07:26:41;11.10;99.90
7936;DHT22;4013;49.744;8.118;2024-02-16T07:29:08;11.10;99.90
7936;DHT22;4013;49.744;8.118;2024-02-16T07:31:37;11.10;99.90
7936;DHT22;4013;49.744;8.118;2024-02-16T07:34:04;11.20;99.90
7936;DHT22;4013;49.744;8.118;2024-02-16T07:36:31;11.20;99.90
7936;DHT22;4013;49.744;8.118;2024-02-16T07:39:00;11.20;99.90
7936;DHT22;4013;49.744;8.118;2024-02-16T07:41:26;11.30;99.90
7936;DHT22;4013;49.744;8.118;2024-02-16T07:43:53;11.30;99.90
7936;DHT22;4013;49.744;8.118;2024-02-16T07:46:20;11.40;99.90
7936;DHT22;4013;49.744;8.118;2024-02-16T07:48:50;11.40;99.90
7936;DHT22;4013;49.744;8.118;2024-02-16T07:51:17;11.50;99.90
7936;DHT22;4013;49.744;8.118;2024-02-16T07:53:45;11.50;99.90
7936;DHT22;4013;49.744;8.118;2024-02-16T07:56:12;11.60;99.90
7936;DHT22;4013;49.744;8.118;2024-02-16T07:58:41;11.60;99.90
7936;DHT22;4013;49.744;8.118;2024-02-16T08:01:08;11.70;99.90
7936;DHT22;4013;49.744;8.118;2024-02-16T08:03:36;11.70;99.90
7936;DHT22;4013;49.744;8.118;2024-02-16T08:06:05;11.70;99.90
7936;DHT22;4013;49.744;8.118;2024-02-16T08:08:32;11.80;99.90
7936;DHT22;4013;49.744;8.118;2024-02-16T08:10:59;11.90;99.90
7936;DHT22;4013;49.744;8.118;2024-02-16T08:13:26;11.90;99.90
7936;DHT22;4013;49.744;8.118;2024-02-16T08:15:53;11.90;99.90
7936;DHT22;4013;49.744;8.118;2024-02-16T08:18:20;11.90;99.90
7936;DHT22;4013;49.744;8.118;2024-02-16T08:20:47;12.00;99.90
7936;DHT22;4013;49.744;8.118;2024-02-16T08:23:16;11.90;99.90
7936;DHT22;4013;49.744;8.118;2024-02-16T08:25:43;11.90;99.90
7936;DHT22;4013;49.744;8.118;2024-02-16T08:28:10;11.90;99.90
7936;DHT22;4013;49.744;8.118;2024-02-16T08:30:37;11.90;99.90
7936;DHT22;4013;49.744;8.118;2024-02-16T08:33:07;11.90;99.90
7936;DHT22;4013;49.744;8.118;2024-02-16T08:35:34;11.90;99.90
7936;DHT22;4013;49.744;8.118;2024-02-16T08:38:01;11.90;99.90
7936;DHT22;4013;49.744;8.118;2024-02-16T08:40:29;11.90;99.90
7936;DHT22;4013;49.744;8.118;2024-02-16T08:42:56;11.90;99.90
7936;DHT22;4013;49.744;8.118;2024-02-16T08:45:25;12.00;99.90
7936;DHT22;4013;49.744;8.118;2024-02-16T08:47:51;12.30;99.90
7936;DHT22;4013;49.744;8.118;2024-02-16T08:50:18;12.40;99.90
7936;DHT22;4013;49.744;8.118;2024-02-16T08:52:45;12.50;99.90
7936;DHT22;4013;49.744;8.118;2024-02-16T08:55:13;12.60;99.90
7936;DHT22;4013;49.744;8.118;2024-02-16T08:57:41;12.70;99.90
7936;DHT22;4013;49.744;8.118;2024-02-16T09:00:09;12.70;99.90
7936;DHT22;4013;49.744;8.118;2024-02-16T09:02:37;12.70;99.90
7936;DHT22;4013;49.744;8.118;2024-02-16T09:05:05;12.70;99.90
7936;DHT22;4013;49.744;8.118;2024-02-16T09:07:35;12.70;99.90
7936;DHT22;4013;49.744;8.118;2024-02-16T09:10:03;12.80;99.90
7936;DHT22;4013;49.744;8.118;2024-02-16T09:12:31;12.80;99.90
7936;DHT22;4013;49.744;8.118;2024-02-16T09:14:59;12.80;99.90
7936;DHT22;4013;49.744;8.118;2024-02-16T09:17:26;12.70;99.90
7936;DHT22;4013;49.744;8.118;2024-02-16T09:19:53;12.80;99.90
7936;DHT22;4013;49.744;8.118;2024-02-16T09:22:20;12.80;99.90
7936;DHT22;4013;49.744;8.118;2024-02-16T09:24:47;12.80;99.90
7936;DHT22;4013;49.744;8.118;2024-02-16T09:27:14;12.80;99.90
7936;DHT22;4013;49.744;8.118;2024-02-16T09:29:41;12.80;99.90
7936;DHT22;4013;49.744;8.118;2024-02-16T09:32:10;12.80;99.90
7936;DHT22;4013;49.744;8.118;2024-02-16T09:34:37;12.80;99.90
7936;DHT22;4013;49.744;8.118;2024-02-16T09:37:04;12.90;99.90
7936;DHT22;4013;49.744;8.118;2024-02-16T09:39:34;12.90;99.90
7936;DHT22;4013;49.744;8.118;2024-02-16T09:42:01;13.00;99.90
7936;DHT22;4013;49.744;8.118;2024-02-16T09:44:28;13.10;99.90
7936;DHT22;4013;49.744;8.118;2024-02-16T09:46:56;13.20;99.90
7936;DHT22;4013;49.744;8.118;2024-02-16T09:49:25;13.20;99.90
7936;DHT22;4013;49.744;8.118;2024-02-16T09:51:53;13.20;99.90
7936;DHT22;4013;49.744;8.118;2024-02-16T09:54:23;13.20;99.90
7936;DHT22;4013;49.744;8.118;2024-02-16T09:56:50;13.30;99.90
7936;DHT22;4013;49.744;8.118;2024-02-16T09:59:17;13.30;99.90
7936;DHT22;4013;49.744;8.118;2024-02-16T10:01:44;13.30;99.90
7936;DHT22;4013;49.744;8.118;2024-02-16T10:04:11;13.30;99.90
7936;DHT22;4013;49.744;8.118;2024-02-16T10:06:56;13.40;99.90
7936;DHT22;4013;49.744;8.118;2024-02-16T10:09:24;13.40;99.90
7936;DHT22;4013;49.744;8.118;2024-02-16T10:11:51;13.40;99.90
7936;DHT22;4013;49.744;8.118;2024-02-16T10:14:18;13.30;99.90
7936;DHT22;4013;49.744;8.118;2024-02-16T10:16:45;13.40;99.90
7936;DHT22;4013;49.744;8.118;2024-02-16T10:19:14;13.40;99.90
7936;DHT22;4013;49.744;8.118;2024-02-16T10:21:44;13.50;99.90
7936;DHT22;4013;49.744;8.118;2024-02-16T10:24:12;13.50;99.90
7936;DHT22;4013;49.744;8.118;2024-02-16T10:26:40;13.50;99.90
7936;DHT22;4013;49.744;8.118;2024-02-16T10:29:09;13.50;99.90
7936;DHT22;4013;49.744;8.118;2024-02-16T10:31:37;13.50;99.90
7936;DHT22;4013;49.744;8.118;2024-02-16T10:34:06;13.50;99.90
7936;DHT22;4013;49.744;8.118;2024-02-16T10:36:36;13.40;99.90
7936;DHT22;4013;49.744;8.118;2024-02-16T10:39:05;13.40;99.90
7936;DHT22;4013;49.744;8.118;2024-02-16T10:41:36;13.50;99.90
7936;DHT22;4013;49.744;8.118;2024-02-16T10:44:03;13.50;99.90
7936;DHT22;4013;49.744;8.118;2024-02-16T10:46:31;13.60;99.90
7936;DHT22;4013;49.744;8.118;2024-02-16T10:48:58;13.60;99.90
7936;DHT22;4013;49.744;8.118;2024-02-16T10:51:30;13.50;99.90
7936;DHT22;4013;49.744;8.118;2024-02-16T10:54:00;13.60;99.90
7936;DHT22;4013;49.744;8.118;2024-02-16T10:56:31;13.60;99.90
7936;DHT22;4013;49.744;8.118;2024-02-16T10:59:02;13.70;99.90
7936;DHT22;4013;49.744;8.118;2024-02-16T11:01:32;13.70;99.90
7936;DHT22;4013;49.744;8.118;2024-02-16T11:04:04;13.80;99.90
7936;DHT22;4013;49.744;8.118;2024-02-16T11:06:44;13.90;99.90
7936;DHT22;4013;49.744;8.118;2024-02-16T11:09:22;14.00;99.90
7936;DHT22;4013;49.744;8.118;2024-02-16T11:11:52;14.10;99.90
7936;DHT22;4013;49.744;8.118;2024-02-16T11:14:21;14.30;99.90
7936;DHT22;4013;49.744;8.118;2024-02-16T11:16:48;14.40;99.90
7936;DHT22;4013;49.744;8.118;2024-02-16T11:19:16;14.50;99.90
7936;DHT22;4013;49.744;8.118;2024-02-16T11:21:55;14.70;99.90
7936;DHT22;4013;49.744;8.118;2024-02-16T11:24:31;14.90;99.90
7936;DHT22;4013;49.744;8.118;2024-02-16T11:26:58;15.00;99.90
7936;DHT22;4013;49.744;8.118;2024-02-16T11:29:34;15.10;99.90
7936;DHT22;4013;49.744;8.118;2024-02-16T11:32:02;15.10;99.90
7936;DHT22;4013;49.744;8.118;2024-02-16T11:34:30;15.10;99.90
7936;DHT22;4013;49.744;8.118;2024-02-16T11:36:57;15.20;99.90
7936;DHT22;4013;49.744;8.118;2024-02-16T11:39:25;15.20;99.90
7936;DHT22;4013;49.744;8.118;2024-02-16T11:42:00;15.20;99.90
7936;DHT22;4013;49.744;8.118;2024-02-16T11:44:29;15.30;99.90
7936;DHT22;4013;49.744;8.118;2024-02-16T11:46:57;15.30;99.90
7936;DHT22;4013;49.744;8.118;2024-02-16T11:49:24;15.30;99.90
7936;DHT22;4013;49.744;8.118;2024-02-16T11:51:51;15.20;99.90
7936;DHT22;4013;49.744;8.118;2024-02-16T11:54:18;15.20;99.90
7936;DHT22;4013;49.744;8.118;2024-02-16T11:56:47;15.20;99.90
7936;DHT22;4013;49.744;8.118;2024-02-16T11:59:17;15.20;99.90
7936;DHT22;4013;49.744;8.118;2024-02-16T12:01:55;15.20;99.90
7936;DHT22;4013;49.744;8.118;2024-02-16T12:04:23;15.30;99.90
7936;DHT22;4013;49.744;8.118;2024-02-16T12:06:52;15.30;99.90
7936;DHT22;4013;49.744;8.118;2024-02-16T12:09:19;15.40;99.90
7936;DHT22;4013;49.744;8.118;2024-02-16T12:11:48;15.50;99.90
7936;DHT22;4013;49.744;8.118;2024-02-16T12:14:15;15.60;99.90
7936;DHT22;4013;49.744;8.118;2024-02-16T12:16:42;15.60;99.90
7936;DHT22;4013;49.744;8.118;2024-02-16T12:19:11;15.80;99.90
7936;DHT22;4013;49.744;8.118;2024-02-16T12:21:38;16.00;99.90
7936;DHT22;4013;49.744;8.118;2024-02-16T12:24:06;16.10;99.90
7936;DHT22;4013;49.744;8.118;2024-02-16T12:26:33;16.20;99.90
7936;DHT22;4013;49.744;8.118;2024-02-16T12:29:00;16.30;99.90
7936;DHT22;4013;49.744;8.118;2024-02-16T12:31:27;16.30;99.90
7936;DHT22;4013;49.744;8.118;2024-02-16T12:33:55;16.20;99.90
7936;DHT22;4013;49.744;8.118;2024-02-16T12:36:23;16.10;99.90
7936;DHT22;4013;49.744;8.118;2024-02-16T12:38:50;15.90;99.90
7936;DHT22;4013;49.744;8.118;2024-02-16T12:41:17;15.90;99.90
7936;DHT22;4013;49.744;8.118;2024-02-16T12:43:44;15.90;99.90
7936;DHT22;4013;49.744;8.118;2024-02-16T12:46:11;15.80;99.90
7936;DHT22;4013;49.744;8.118;2024-02-16T12:48:37;15.80;99.90
7936;DHT22;4013;49.744;8.118;2024-02-16T12:51:04;15.90;99.90
7936;DHT22;4013;49.744;8.118;2024-02-16T12:53:33;15.90;99.90
7936;DHT22;4013;49.744;8.118;2024-02-16T12:56:06;16.00;99.90
7936;DHT22;4013;49.744;8.118;2024-02-16T12:58:33;16.10;99.90
7936;DHT22;4013;49.744;8.118;2024-02-16T13:01:00;16.20;99.90
7936;DHT22;4013;49.744;8.118;2024-02-16T13:03:28;16.10;99.90
7936;DHT22;4013;49.744;8.118;2024-02-16T13:05:54;16.10;99.90
7936;DHT22;4013;49.744;8.118;2024-02-16T13:08:22;16.10;99.90
7936;DHT22;4013;49.744;8.118;2024-02-16T13:10:50;16.10;99.90
7936;DHT22;4013;49.744;8.118;2024-02-16T13:13:17;16.10;99.90
7936;DHT22;4013;49.744;8.118;2024-02-16T13:15:44;16.10;99.90
7936;DHT22;4013;49.744;8.118;2024-02-16T13:18:12;16.00;99.90
7936;DHT22;4013;49.744;8.118;2024-02-16T13:20:39;15.90;99.90
7936;DHT22;4013;49.744;8.118;2024-02-16T13:23:06;15.90;99.90
7936;DHT22;4013;49.744;8.118;2024-02-16T13:25:33;15.90;99.90
7936;DHT22;4013;49.744;8.118;2024-02-16T13:28:02;15.90;99.90
7936;DHT22;4013;49.744;8.118;2024-02-16T13:30:29;15.90;99.90
7936;DHT22;4013;49.744;8.118;2024-02-16T13:32:56;15.90;99.90
7936;DHT22;4013;49.744;8.118;2024-02-16T13:35:25;15.80;99.90
7936;DHT22;4013;49.744;8.118;2024-02-16T13:37:52;15.70;99.90
7936;DHT22;4013;49.744;8.118;2024-02-16T13:40:19;15.70;99.90
7936;DHT22;4013;49.744;8.118;2024-02-16T13:42:46;15.70;99.90
7936;DHT22;4013;49.744;8.118;2024-02-16T13:45:15;15.70;99.90
7936;DHT22;4013;49.744;8.118;2024-02-16T13:47:42;15.70;99.90
7936;DHT22;4013;49.744;8.118;2024-02-16T13:50:09;15.60;99.90
7936;DHT22;4013;49.744;8.118;2024-02-16T13:52:36;15.60;99.90
7936;DHT22;4013;49.744;8.118;2024-02-16T13:55:04;15.50;99.90
7936;DHT22;4013;49.744;8.118;2024-02-16T13:57:32;15.50;99.90
7936;DHT22;4013;49.744;8.118;2024-02-16T13:59:59;15.40;99.90
7936;DHT22;4013;49.744;8.118;2024-02-16T14:02:27;15.40;99.90
7936;DHT22;4013;49.744;8.118;2024-02-16T14:04:54;15.40;99.90
7936;DHT22;4013;49.744;8.118;2024-02-16T14:07:22;15.30;99.90
7936;DHT22;4013;49.744;8.118;2024-02-16T14:09:49;15.20;99.90
7936;DHT22;4013;49.744;8.118;2024-02-16T14:12:16;15.20;99.90
7936;DHT22;4013;49.744;8.118;2024-02-16T14:14:42;15.20;99.90
7936;DHT22;4013;49.744;8.118;2024-02-16T14:17:09;15.20;99.90
7936;DHT22;4013;49.744;8.118;2024-02-16T14:19:38;15.20;99.90
7936;DHT22;4013;49.744;8.118;2024-02-16T14:22:05;15.10;99.90
7936;DHT22;4013;49.744;8.118;2024-02-16T14:24:33;15.10;99.90
7936;DHT22;4013;49.744;8.118;2024-02-16T14:27:00;15.00;99.90
7936;DHT22;4013;49.744;8.118;2024-02-16T14:29:26;14.90;99.90
7936;DHT22;4013;49.744;8.118;2024-02-16T14:31:54;14.90;99.90
7936;DHT22;4013;49.744;8.118;2024-02-16T14:34:22;14.80;99.90
7936;DHT22;4013;49.744;8.118;2024-02-16T14:36:50;14.80;99.90
7936;DHT22;4013;49.744;8.118;2024-02-16T14:39:17;14.80;99.90
7936;DHT22;4013;49.744;8.118;2024-02-16T14:41:45;14.80;99.90
7936;DHT22;4013;49.744;8.118;2024-02-16T14:44:12;14.80;99.90
7936;DHT22;4013;49.744;8.118;2024-02-16T14:46:39;14.80;99.90
7936;DHT22;4013;49.744;8.118;2024-02-16T14:49:06;14.80;99.90
7936;DHT22;4013;49.744;8.118;2024-02-16T14:51:34;14.90;99.90
7936;DHT22;4013;49.744;8.118;2024-02-16T14:54:03;14.90;99.90
7936;DHT22;4013;49.744;8.118;2024-02-16T14:56:30;14.80;99.90
7936;DHT22;4013;49.744;8.118;2024-02-16T14:58:57;14.80;99.90
7936;DHT22;4013;49.744;8.118;2024-02-16T15:01:25;14.80;99.90
7936;DHT22;4013;49.744;8.118;2024-02-16T15:03:52;14.80;99.90
7936;DHT22;4013;49.744;8.118;2024-02-16T15:06:19;14.80;99.90
7936;DHT22;4013;49.744;8.118;2024-02-16T15:08:46;14.80;99.90
7936;DHT22;4013;49.744;8.118;2024-02-16T15:11:14;14.80;99.90
7936;DHT22;4013;49.744;8.118;2024-02-16T15:13:42;14.70;99.90
7936;DHT22;4013;49.744;8.118;2024-02-16T15:16:09;14.80;99.90
7936;DHT22;4013;49.744;8.118;2024-02-16T15:18:36;14.80;99.90
7936;DHT22;4013;49.744;8.118;2024-02-16T15:21:03;14.80;99.90
7936;DHT22;4013;49.744;8.118;2024-02-16T15:23:30;14.80;99.90
7936;DHT22;4013;49.744;8.118;2024-02-16T15:25:57;14.80;99.90
7936;DHT22;4013;49.744;8.118;2024-02-16T15:28:26;14.80;99.90
7936;DHT22;4013;49.744;8.118;2024-02-16T15:30:53;14.70;99.90
7936;DHT22;4013;49.744;8.118;2024-02-16T15:33:20;14.80;99.90
7936;DHT22;4013;49.744;8.118;2024-02-16T15:35:47;14.80;99.90
7936;DHT22;4013;49.744;8.118;2024-02-16T15:38:14;14.70;99.90
7936;DHT22;4013;49.744;8.118;2024-02-16T15:40:41;14.60;99.90
7936;DHT22;4013;49.744;8.118;2024-02-16T15:43:08;14.60;99.90
7936;DHT22;4013;49.744;8.118;2024-02-16T15:45:41;14.50;99.90
7936;DHT22;4013;49.744;8.118;2024-02-16T15:48:10;14.60;99.90
7936;DHT22;4013;49.744;8.118;2024-02-16T15:50:40;14.60;99.90
7936;DHT22;4013;49.744;8.118;2024-02-16T15:53:07;14.70;99.90
7936;DHT22;4013;49.744;8.118;2024-02-16T15:55:34;14.70;99.90
7936;DHT22;4013;49.744;8.118;2024-02-16T15:58:01;14.70;99.90
7936;DHT22;4013;49.744;8.118;2024-02-16T16:00:28;14.70;99.90
7936;DHT22;4013;49.744;8.118;2024-02-16T16:02:56;14.70;99.90
7936;DHT22;4013;49.744;8.118;2024-02-16T16:05:26;14.70;99.90
7936;DHT22;4013;49.744;8.118;2024-02-16T16:07:55;14.70;99.90
7936;DHT22;4013;49.744;8.118;2024-02-16T16:10:22;14.70;99.90
7936;DHT22;4013;49.744;8.118;2024-02-16T16:12:49;14.60;99.90
7936;DHT22;4013;49.744;8.118;2024-02-16T16:15:16;14.50;99.90
7936;DHT22;4013;49.744;8.118;2024-02-16T16:17:44;14.50;99.90
7936;DHT22;4013;49.744;8.118;2024-02-16T16:20:14;14.50;99.90
7936;DHT22;4013;49.744;8.118;2024-02-16T16:22:42;14.60;99.90
7936;DHT22;4013;49.744;8.118;2024-02-16T16:25:10;14.50;99.90
7936;DHT22;4013;49.744;8.118;2024-02-16T16:27:37;14.50;99.90
7936;DHT22;4013;49.744;8.118;2024-02-16T16:30:07;14.50;99.90
7936;DHT22;4013;49.744;8.118;2024-02-16T16:32:34;14.40;99.90
7936;DHT22;4013;49.744;8.118;2024-02-16T16:35:01;14.40;99.90
7936;DHT22;4013;49.744;8.118;2024-02-16T16:37:29;14.40;99.90
7936;DHT22;4013;49.744;8.118;2024-02-16T16:39:56;14.40;99.90
7936;DHT22;4013;49.744;8.118;2024-02-16T16:42:23;14.40;99.90
7936;DHT22;4013;49.744;8.118;2024-02-16T16:44:50;14.40;99.90
7936;DHT22;4013;49.744;8.118;2024-02-16T16:47:17;14.40;99.90
7936;DHT22;4013;49.744;8.118;2024-02-16T16:49:44;14.30;99.90
7936;DHT22;4013;49.744;8.118;2024-02-16T16:52:11;14.30;99.90
7936;DHT22;4013;49.744;8.118;2024-02-16T16:54:39;14.40;99.90
7936;DHT22;4013;49.744;8.118;2024-02-16T16:57:06;14.30;99.90
7936;DHT22;4013;49.744;8.118;2024-02-16T16:59:33;14.30;99.90
7936;DHT22;4013;49.744;8.118;2024-02-16T17:02:00;14.30;99.90
7936;DHT22;4013;49.744;8.118;2024-02-16T17:04:29;14.30;99.90
7936;DHT22;4013;49.744;8.118;2024-02-16T17:06:57;14.20;99.90
7936;DHT22;4013;49.744;8.118;2024-02-16T17:09:24;14.10;99.90
7936;DHT22;4013;49.744;8.118;2024-02-16T17:11:52;14.10;99.90
7936;DHT22;4013;49.744;8.118;2024-02-16T17:14:21;14.00;99.90
7936;DHT22;4013;49.744;8.118;2024-02-16T17:16:49;14.00;99.90
7936;DHT22;4013;49.744;8.118;2024-02-16T17:19:16;14.00;99.90
7936;DHT22;4013;49.744;8.118;2024-02-16T17:21:43;14.00;99.90
7936;DHT22;4013;49.744;8.118;2024-02-16T17:24:10;13.90;99.90
7936;DHT22;4013;49.744;8.118;2024-02-16T17:26:37;13.90;99.90
7936;DHT22;4013;49.744;8.118;2024-02-16T17:29:05;13.80;99.90
7936;DHT22;4013;49.744;8.118;2024-02-16T17:31:32;13.80;99.90
7936;DHT22;4013;49.744;8.118;2024-02-16T17:33:59;13.80;99.90
7936;DHT22;4013;49.744;8.118;2024-02-16T17:36:31;13.70;99.90
7936;DHT22;4013;49.744;8.118;2024-02-16T17:39:00;13.60;99.90
7936;DHT22;4013;49.744;8.118;2024-02-16T17:41:27;13.60;99.90
7936;DHT22;4013;49.744;8.118;2024-02-16T17:43:56;13.50;99.90
7936;DHT22;4013;49.744;8.118;2024-02-16T17:46:24;13.50;99.90
7936;DHT22;4013;49.744;8.118;2024-02-16T17:48:52;13.50;99.90
7936;DHT22;4013;49.744;8.118;2024-02-16T17:51:18;13.60;99.90
7936;DHT22;4013;49.744;8.118;2024-02-16T17:53:46;13.60;99.90
7936;DHT22;4013;49.744;8.118;2024-02-16T17:56:13;13.60;99.90
7936;DHT22;4013;49.744;8.118;2024-02-16T17:58:40;13.60;99.90
7936;DHT22;4013;49.744;8.118;2024-02-16T18:01:07;13.50;99.90
7936;DHT22;4013;49.744;8.118;2024-02-16T18:03:35;13.60;99.90
7936;DHT22;4013;49.744;8.118;2024-02-16T18:06:02;13.60;99.90
7936;DHT22;4013;49.744;8.118;2024-02-16T18:08:29;13.60;99.90
7936;DHT22;4013;49.744;8.118;2024-02-16T18:10:56;13.60;99.90
7936;DHT22;4013;49.744;8.118;2024-02-16T18:13:25;13.60;99.90
7936;DHT22;4013;49.744;8.118;2024-02-16T18:15:51;13.60;99.90
7936;DHT22;4013;49.744;8.118;2024-02-16T18:18:20;13.60;99.90
7936;DHT22;4013;49.744;8.118;2024-02-16T18:20:49;13.50;99.90
7936;DHT22;4013;49.744;8.118;2024-02-16T18:23:16;13.50;99.90
7936;DHT22;4013;49.744;8.118;2024-02-16T18:25:42;13.40;99.90
7936;DHT22;4013;49.744;8.118;2024-02-16T18:28:10;13.50;99.90
7936;DHT22;4013;49.744;8.118;2024-02-16T18:30:37;13.40;99.90
7936;DHT22;4013;49.744;8.118;2024-02-16T18:33:05;13.40;99.90
7936;DHT22;4013;49.744;8.118;2024-02-16T18:35:32;13.40;99.90
7936;DHT22;4013;49.744;8.118;2024-02-16T18:38:02;13.40;99.90
7936;DHT22;4013;49.744;8.118;2024-02-16T18:40:29;13.40;99.90
7936;DHT22;4013;49.744;8.118;2024-02-16T18:42:56;13.40;99.90
7936;DHT22;4013;49.744;8.118;2024-02-16T18:45:23;13.40;99.90
7936;DHT22;4013;49.744;8.118;2024-02-16T18:47:50;13.40;99.90
7936;DHT22;4013;49.744;8.118;2024-02-16T18:50:18;13.40;99.90
7936;DHT22;4013;49.744;8.118;2024-02-16T18:52:46;13.40;99.90
7936;DHT22;4013;49.744;8.118;2024-02-16T18:55:14;13.40;99.90
7936;DHT22;4013;49.744;8.118;2024-02-16T18:57:42;13.40;99.90
7936;DHT22;4013;49.744;8.118;2024-02-16T19:00:10;13.40;99.90
7936;DHT22;4013;49.744;8.118;2024-02-16T19:02:38;13.40;99.90
7936;DHT22;4013;49.744;8.118;2024-02-16T19:05:09;13.30;99.90
7936;DHT22;4013;49.744;8.118;2024-02-16T19:07:36;13.30;99.90
7936;DHT22;4013;49.744;8.118;2024-02-16T19:10:04;13.20;99.90
7936;DHT22;4013;49.744;8.118;2024-02-16T19:12:32;13.20;99.90
7936;DHT22;4013;49.744;8.118;2024-02-16T19:15:00;13.10;99.90
7936;DHT22;4013;49.744;8.118;2024-02-16T19:17:27;13.10;99.90
7936;DHT22;4013;49.744;8.118;2024-02-16T19:19:53;13.10;99.90
7936;DHT22;4013;49.744;8.118;2024-02-16T19:22:20;13.00;99.90
7936;DHT22;4013;49.744;8.118;2024-02-16T19:24:47;13.00;99.90
7936;DHT22;4013;49.744;8.118;2024-02-16T19:27:14;13.00;99.90
7936;DHT22;4013;49.744;8.118;2024-02-16T19:29:47;12.90;99.90
7936;DHT22;4013;49.744;8.118;2024-02-16T19:32:15;12.90;99.90
7936;DHT22;4013;49.744;8.118;2024-02-16T19:34:41;12.90;99.90
7936;DHT22;4013;49.744;8.118;2024-02-16T19:37:09;12.90;99.90
7936;DHT22;4013;49.744;8.118;2024-02-16T19:39:36;13.00;99.90
7936;DHT22;4013;49.744;8.118;2024-02-16T19:42:03;12.90;99.90
7936;DHT22;4013;49.744;8.118;2024-02-16T19:44:30;12.90;99.90
7936;DHT22;4013;49.744;8.118;2024-02-16T19:47:00;12.90;99.90
7936;DHT22;4013;49.744;8.118;2024-02-16T19:49:28;12.80;99.90
7936;DHT22;4013;49.744;8.118;2024-02-16T19:51:55;12.80;99.90
7936;DHT22;4013;49.744;8.118;2024-02-16T19:54:22;12.90;99.90
7936;DHT22;4013;49.744;8.118;2024-02-16T19:56:49;12.90;99.90
7936;DHT22;4013;49.744;8.118;2024-02-16T19:59:16;12.90;99.90
7936;DHT22;4013;49.744;8.118;2024-02-16T20:01:43;12.80;99.90
7936;DHT22;4013;49.744;8.118;2024-02-16T20:04:11;12.90;99.90
7936;DHT22;4013;49.744;8.118;2024-02-16T20:06:38;12.80;99.90
7936;DHT22;4013;49.744;8.118;2024-02-16T20:09:05;12.90;99.90
7936;DHT22;4013;49.744;8.118;2024-02-16T20:11:33;12.80;99.90
7936;DHT22;4013;49.744;8.118;2024-02-16T20:14:00;12.80;99.90
7936;DHT22;4013;49.744;8.118;2024-02-16T20:16:27;12.80;99.90
7936;DHT22;4013;49.744;8.118;2024-02-16T20:18:54;12.80;99.90
7936;DHT22;4013;49.744;8.118;2024-02-16T20:21:24;12.80;99.90
7936;DHT22;4013;49.744;8.118;2024-02-16T20:23:51;12.80;99.90
7936;DHT22;4013;49.744;8.118;2024-02-16T20:26:22;12.80;99.90
7936;DHT22;4013;49.744;8.118;2024-02-16T20:28:50;12.80;99.90
7936;DHT22;4013;49.744;8.118;2024-02-16T20:31:17;12.70;99.90
7936;DHT22;4013;49.744;8.118;2024-02-16T20:33:44;12.70;99.90
7936;DHT22;4013;49.744;8.118;2024-02-16T20:36:11;12.70;99.90
7936;DHT22;4013;49.744;8.118;2024-02-16T20:38:40;12.70;99.90
7936;DHT22;4013;49.744;8.118;2024-02-16T20:41:07;12.70;99.90
7936;DHT22;4013;49.744;8.118;2024-02-16T20:43:34;12.70;99.90
7936;DHT22;4013;49.744;8.118;2024-02-16T20:46:01;12.70;99.90
7936;DHT22;4013;49.744;8.118;2024-02-16T20:48:30;12.70;99.90
7936;DHT22;4013;49.744;8.118;2024-02-16T20:50:57;12.70;99.90
7936;DHT22;4013;49.744;8.118;2024-02-16T20:53:24;12.60;99.90
7936;DHT22;4013;49.744;8.118;2024-02-16T20:55:52;12.60;99.90
7936;DHT22;4013;49.744;8.118;2024-02-16T20:58:20;12.70;99.90
7936;DHT22;4013;49.744;8.118;2024-02-16T21:00:46;12.60;99.90
7936;DHT22;4013;49.744;8.118;2024-02-16T21:03:13;12.60;99.90
7936;DHT22;4013;49.744;8.118;2024-02-16T21:05:42;12.60;99.90
7936;DHT22;4013;49.744;8.118;2024-02-16T21:08:09;12.60;99.90
7936;DHT22;4013;49.744;8.118;2024-02-16T21:10:37;12.60;99.90
7936;DHT22;4013;49.744;8.118;2024-02-16T21:13:05;12.60;99.90
7936;DHT22;4013;49.744;8.118;2024-02-16T21:15:32;12.60;99.90
7936;DHT22;4013;49.744;8.118;2024-02-16T21:18:00;12.60;99.90
7936;DHT22;4013;49.744;8.118;2024-02-16T21:20:26;12.60;99.90
7936;DHT22;4013;49.744;8.118;2024-02-16T21:22:53;12.70;99.90
7936;DHT22;4013;49.744;8.118;2024-02-16T21:25:20;12.60;99.90
7936;DHT22;4013;49.744;8.118;2024-02-16T21:27:47;12.70;99.90
7936;DHT22;4013;49.744;8.118;2024-02-16T21:30:15;12.60;99.90
7936;DHT22;4013;49.744;8.118;2024-02-16T21:32:43;12.70;99.90
7936;DHT22;4013;49.744;8.118;2024-02-16T21:35:10;12.60;99.90